CheckWX is a tool to help pilots better visualize weather data.  It is not intended as a substitute for an official pre-flight weather briefing.

13:20:50 UTC

KRWF TAF
Redwood Falls Municipal Airport
Redwood Falls, Minnesota, USA
KRWF 211126Z 2112/2212 17011KT P6SM VCSH OVC025 TEMPO 2112/2114 3SM -TSRA BR BKN012CB FM211400 18014G24KT P6SM VCSH OVC015 FM211700 20015G25KT P6SM VCTS BKN020CB TEMPO 2118/2120 3SM -TSRA BR BKN015CB FM212100 23015G25KT P6SM SCT050 FM220000 27011KT P6SM FEW250

Sep-21@
12:00 UTC

Sep-21 @ 12:00 UTC

Sep-21@
14:00 UTC

Sep-21 @ 14:00 UTC

KRWF 211126Z 2112/2212 17011KT P6SM VCSH OVC025
Wind
  • 170° at 11 KTS
Cloud Levels
  • Overcast at 2,500' AGL

Sep-21@
12:00 UTC

Sep-21 @ 12:00 UTC

Sep-21@
14:00 UTC

Sep-21 @ 14:00 UTC

TEMPO 2112/2114 3SM -TSRA BR BKN012CB

Temporary

Temporary Changes expected for less than half the time period

Conditions
Light Thunderstorm, Light Rain, Mist
Cloud Levels
  • Broken at 1,200' AGL

Sep-21@
14:00 UTC

Sep-21 @ 14:00 UTC

Sep-21@
17:00 UTC

Sep-21 @ 17:00 UTC

FM211400 18014G24KT P6SM VCSH OVC015

From

From Standard forecast or significant change

Wind
  • 180° at 14 KTS
  • {Gusting to 24 KTS
Cloud Levels
  • Overcast at 1,500' AGL

Sep-21@
17:00 UTC

Sep-21 @ 17:00 UTC

Sep-21@
21:00 UTC

Sep-21 @ 21:00 UTC

FM211700 20015G25KT P6SM VCTS BKN020CB

From

From Standard forecast or significant change

Wind
  • 200° at 15 KTS
  • {Gusting to 25 KTS
Conditions
Area Thunderstorm
Cloud Levels
  • Broken at 2,000' AGL

Sep-21@
18:00 UTC

Sep-21 @ 18:00 UTC

Sep-21@
20:00 UTC

Sep-21 @ 20:00 UTC

TEMPO 2118/2120 3SM -TSRA BR BKN015CB

Temporary

Temporary Changes expected for less than half the time period

Conditions
Light Thunderstorm, Light Rain, Mist
Cloud Levels
  • Broken at 1,500' AGL

Sep-21@
21:00 UTC

Sep-21 @ 21:00 UTC

Sep-22@
00:00 UTC

Sep-22 @ 00:00 UTC

FM212100 23015G25KT P6SM SCT050

From

From Standard forecast or significant change

Wind
  • 230° at 15 KTS
  • {Gusting to 25 KTS
Cloud Levels
  • Scattered at 5,000' AGL

Sep-22@
00:00 UTC

Sep-22 @ 00:00 UTC

Sep-22@
12:00 UTC

Sep-22 @ 12:00 UTC

FM220000 27011KT P6SM FEW250

From

From Standard forecast or significant change

Wind
  • 270° at 11 KTS
Cloud Levels
  • Few at 25,000' AGL